This is the latest recevied weather packets stored in our database for station/object KE5AKC. If no packets are shown the sender has not sent any weather packets the latest 1 day(s).
| Time | Temp. | Humidity | Pressure | Rain* | Wind** | Luminosity | Snow |
|---|---|---|---|---|---|---|---|
| 1777993783 | 25.56° C | 81% | 1009.7 hPa | 0 mm | 0.45 m/s, 258° | 223 W/m² | - |
| 1777993480 | 25° C | 81% | 1009.3 hPa | 0 mm | 0.89 m/s, 287° | 151 W/m² | - |
| 1777993179 | 25° C | 82% | 1009.3 hPa | 0 mm | 1.34 m/s, 197° | 120 W/m² | - |
| 1777992877 | 25° C | 82% | 1009.3 hPa | 0 mm | 0.45 m/s, 348° | 159 W/m² | - |
| 1777992575 | 25° C | 81% | 1009.3 hPa | 0 mm | 0.45 m/s, 201° | 100 W/m² | - |
| 1777992273 | 25° C | 81% | 1009.7 hPa | 0 mm | 0.89 m/s, 219° | 112 W/m² | - |
| 1777991970 | 25° C | 81% | 1009.3 hPa | 0 mm | 0.89 m/s, 195° | 137 W/m² | - |
| 1777991668 | 25° C | 81% | 1009.3 hPa | 0 mm | 1.34 m/s, 192° | 192 W/m² | - |
| 1777991365 | 25° C | 81% | 1009.7 hPa | 0 mm | 0.45 m/s, 273° | 159 W/m² | - |
| 1777991062 | 25° C | 81% | 1009.3 hPa | 0 mm | 0.45 m/s, 211° | 129 W/m² | - |
| 1777990759 | 25° C | 82% | 1009.3 hPa | 0 mm | 1.34 m/s, 163° | 139 W/m² | - |
| 1777990456 | 25° C | 81% | 1009 hPa | 0 mm | 2.24 m/s, 225° | 200 W/m² | - |
| 1777990153 | 24.44° C | 82% | 1009.3 hPa | 0 mm | 0.89 m/s, 302° | 169 W/m² | - |
| 1777989849 | 24.44° C | 82% | 1009.3 hPa | 0 mm | 2.68 m/s, 164° | 196 W/m² | - |
| 1777989547 | 24.44° C | 82% | 1009.3 hPa | 0 mm | 1.34 m/s, 263° | 128 W/m² | - |
| 1777989243 | 24.44° C | 82% | 1009.3 hPa | 0 mm | 1.34 m/s, 239° | 90 W/m² | - |
| 1777988939 | 24.44° C | 82% | 1009.3 hPa | 0 mm | 1.34 m/s, 174° | 73 W/m² | - |
| 1777988630 | 24.44° C | 82% | 1009.7 hPa | 0 mm | 1.34 m/s, 277° | 107 W/m² | - |
| 1777988326 | 24.44° C | 82% | 1009.7 hPa | 0 mm | 0.45 m/s, 155° | 60 W/m² | - |
| 1777988023 | 24.44° C | 82% | 1009.7 hPa | 0 mm | 0.45 m/s, 261° | 103 W/m² | - |
| 1777987719 | 24.44° C | 83% | 1009.3 hPa | 0 mm | 0 m/s | 97 W/m² | - |
| 1777987417 | 24.44° C | 83% | 1009 hPa | 0 mm | 2.24 m/s, 196° | 123 W/m² | - |
| 1777987114 | 23.89° C | 83% | 1009.3 hPa | 0 mm | 0.45 m/s, 176° | 117 W/m² | - |
| 1777986811 | 24.44° C | 82% | 1009 hPa | 0 mm | 1.79 m/s, 228° | 107 W/m² | - |
| 1777986509 | 24.44° C | 82% | 1009 hPa | 0 mm | 0.89 m/s, 112° | 107 W/m² | - |
* Rain latest hour (hover to see other rain measurements)
** Current wind speed in m/s (hover to see current wind gust speed)